ACA873 LFPG-CYUL
Flight info
| Callsign | ACA873 |
|---|---|
| Flight time | N/A |
| Altitude | 30000 |
| Route | ATREX6G ATREX DCT VESAN DCT RATUK DCT SOVAT/N0457F360 L613 SANDY DCT OKSAW DCT TEWXI DCT LIPGO DCT ENULA DCT REVNU/N0463F380 DCT RESNO/M080F380 DCT 55N020W 54N030W 52N040W 50N050W DCT ELSIR/N0459F380 N412A MIILS DCT TIBOS ROCKT3 |
| Aircraft | A343/H-SDE2E3FGHIJ4J5M1RWXY/LB1D1 |
Departure
| Time | 2026-05-08 19:08 |
|---|---|
| Airport | Charles de Gaulle International Airport (LFPG) |
Arrival
| Time | N/A |
|---|---|
| Airport | Montreal / Pierre Elliott Trudeau International Airport (CYUL) |
| Time | Latitude | Longitude | Altitude | Speed | Heading |
|---|---|---|---|---|---|
| 2026-05-08 18:37 | 49.00193 | 2.56441 | 358 ft | 0 kts | 339° |
| 2026-05-08 18:49 | 49.00187 | 2.56445 | 364 ft | 4 kts | 338° |
| 2026-05-08 18:50 | 49.00162 | 2.56461 | 367 ft | 4 kts | 332° |
| 2026-05-08 18:50 | 49.00139 | 2.56482 | 365 ft | 4 kts | 323° |
| 2026-05-08 18:50 | 49.00119 | 2.56509 | 367 ft | 4 kts | 306° |
| 2026-05-08 18:50 | 49.00109 | 2.56542 | 361 ft | 2 kts | 268° |
| 2026-05-08 18:51 | 49.00109 | 2.56545 | 361 ft | 0 kts | 267° |
| 2026-05-08 18:54 | 49.00109 | 2.56540 | 358 ft | 2 kts | 267° |
| 2026-05-08 18:54 | 49.00107 | 2.56491 | 358 ft | 7 kts | 267° |
| 2026-05-08 18:54 | 49.00101 | 2.56394 | 366 ft | 9 kts | 263° |
| 2026-05-08 18:54 | 49.00095 | 2.56295 | 360 ft | 9 kts | 265° |
| 2026-05-08 18:55 | 49.00085 | 2.56092 | 364 ft | 10 kts | 265° |
| 2026-05-08 18:55 | 49.00079 | 2.55986 | 362 ft | 10 kts | 265° |
| 2026-05-08 18:55 | 49.00074 | 2.55879 | 366 ft | 10 kts | 266° |
| 2026-05-08 18:56 | 49.00072 | 2.55769 | 358 ft | 10 kts | 269° |
| 2026-05-08 18:56 | 49.00076 | 2.55662 | 367 ft | 9 kts | 295° |
| 2026-05-08 18:56 | 49.00134 | 2.55609 | 366 ft | 12 kts | 342° |
| 2026-05-08 18:56 | 49.00233 | 2.55562 | 360 ft | 18 kts | 343° |
| 2026-05-08 18:57 | 49.00352 | 2.55513 | 363 ft | 18 kts | 345° |
| 2026-05-08 18:57 | 49.00429 | 2.55478 | 362 ft | 17 kts | 343° |
| 2026-05-08 18:57 | 49.00581 | 2.55412 | 364 ft | 17 kts | 344° |
| 2026-05-08 18:57 | 49.00689 | 2.55366 | 363 ft | 16 kts | 344° |
| 2026-05-08 18:58 | 49.00796 | 2.55319 | 366 ft | 16 kts | 344° |
| 2026-05-08 18:58 | 49.00905 | 2.55272 | 360 ft | 17 kts | 343° |
| 2026-05-08 18:58 | 49.01015 | 2.55223 | 366 ft | 16 kts | 343° |
| 2026-05-08 18:58 | 49.01128 | 2.55174 | 358 ft | 18 kts | 344° |
| 2026-05-08 18:59 | 49.01240 | 2.55150 | 365 ft | 11 kts | 23° |
| 2026-05-08 18:59 | 49.01301 | 2.55209 | 366 ft | 12 kts | 22° |
| 2026-05-08 18:59 | 49.01397 | 2.55197 | 361 ft | 16 kts | 345° |
| 2026-05-08 18:59 | 49.01509 | 2.55169 | 364 ft | 17 kts | 354° |
| 2026-05-08 19:00 | 49.01587 | 2.55159 | 363 ft | 18 kts | 355° |
| 2026-05-08 19:00 | 49.01749 | 2.55139 | 364 ft | 17 kts | 355° |
| 2026-05-08 19:00 | 49.01850 | 2.55091 | 365 ft | 13 kts | 298° |
| 2026-05-08 19:00 | 49.01854 | 2.54958 | 358 ft | 13 kts | 266° |
| 2026-05-08 19:01 | 49.01847 | 2.54822 | 361 ft | 13 kts | 265° |
| 2026-05-08 19:01 | 49.01839 | 2.54687 | 358 ft | 13 kts | 265° |
| 2026-05-08 19:01 | 49.01831 | 2.54550 | 358 ft | 13 kts | 265° |
| 2026-05-08 19:01 | 49.01823 | 2.54393 | 359 ft | 16 kts | 265° |
| 2026-05-08 19:02 | 49.01814 | 2.54209 | 364 ft | 18 kts | 265° |
| 2026-05-08 19:02 | 49.01803 | 2.54017 | 366 ft | 18 kts | 265° |
| 2026-05-08 19:02 | 49.01793 | 2.53823 | 363 ft | 20 kts | 265° |
| 2026-05-08 19:02 | 49.01781 | 2.53604 | 363 ft | 21 kts | 265° |
| 2026-05-08 19:03 | 49.01769 | 2.53390 | 359 ft | 20 kts | 265° |
| 2026-05-08 19:03 | 49.01757 | 2.53185 | 365 ft | 20 kts | 266° |
| 2026-05-08 19:03 | 49.01748 | 2.52984 | 361 ft | 19 kts | 266° |
| 2026-05-08 19:03 | 49.01738 | 2.52787 | 364 ft | 19 kts | 265° |
| 2026-05-08 19:04 | 49.01726 | 2.52593 | 361 ft | 18 kts | 265° |
| 2026-05-08 19:04 | 49.01714 | 2.52395 | 366 ft | 20 kts | 265° |
| 2026-05-08 19:04 | 49.01706 | 2.52212 | 364 ft | 15 kts | 275° |
| 2026-05-08 19:04 | 49.01778 | 2.52138 | 363 ft | 14 kts | 352° |
| 2026-05-08 19:05 | 49.01864 | 2.52126 | 358 ft | 10 kts | 355° |
| 2026-05-08 19:05 | 49.01933 | 2.52117 | 366 ft | 7 kts | 355° |
| 2026-05-08 19:05 | 49.01936 | 2.52117 | 366 ft | 0 kts | 355° |
| 2026-05-08 19:06 | 49.01946 | 2.52115 | 365 ft | 5 kts | 355° |
| 2026-05-08 19:06 | 49.02013 | 2.52108 | 362 ft | 12 kts | 355° |
| 2026-05-08 19:06 | 49.02095 | 2.52120 | 363 ft | 11 kts | 37° |
| 2026-05-08 19:07 | 49.02113 | 2.52231 | 362 ft | 16 kts | 85° |
| 2026-05-08 19:07 | 49.02135 | 2.52630 | 363 ft | 64 kts | 85° |
| 2026-05-08 19:07 | 49.02185 | 2.53556 | 360 ft | 110 kts | 85° |
| 2026-05-08 19:07 | 49.02257 | 2.54925 | 362 ft | 147 kts | 86° |
| 2026-05-08 19:08 | 49.02349 | 2.56557 | 645 ft | 157 kts | 83° |
| 2026-05-08 19:08 | 49.02415 | 2.58207 | 1154 ft | 155 kts | 84° |
| 2026-05-08 19:08 | 49.02503 | 2.59866 | 1607 ft | 161 kts | 84° |
| 2026-05-08 19:08 | 49.02620 | 2.61656 | 1877 ft | 182 kts | 83° |
| 2026-05-08 19:09 | 49.02775 | 2.63670 | 2225 ft | 199 kts | 82° |
| 2026-05-08 19:09 | 49.02966 | 2.65884 | 2512 ft | 224 kts | 83° |
| 2026-05-08 19:09 | 49.03079 | 2.68371 | 2921 ft | 243 kts | 88° |
| 2026-05-08 19:09 | 49.03147 | 2.70947 | 3640 ft | 249 kts | 87° |
| 2026-05-08 19:10 | 49.03463 | 2.73587 | 4347 ft | 257 kts | 68° |
| 2026-05-08 19:10 | 49.04500 | 2.75825 | 5096 ft | 263 kts | 40° |
| 2026-05-08 19:10 | 49.06160 | 2.77035 | 5836 ft | 271 kts | 15° |
| 2026-05-08 19:10 | 49.08041 | 2.77381 | 6451 ft | 281 kts | 358° |
| 2026-05-08 19:11 | 49.09971 | 2.76751 | 7127 ft | 286 kts | 338° |
| 2026-05-08 19:11 | 49.11796 | 2.75569 | 8007 ft | 283 kts | 334° |
| 2026-05-08 19:11 | 49.13608 | 2.74384 | 8890 ft | 282 kts | 336° |
| 2026-05-08 19:11 | 49.15458 | 2.73323 | 9618 ft | 286 kts | 337° |
| 2026-05-08 19:12 | 49.17316 | 2.72280 | 10280 ft | 289 kts | 337° |
| 2026-05-08 19:12 | 49.19267 | 2.71180 | 10621 ft | 305 kts | 337° |
| 2026-05-08 19:12 | 49.21314 | 2.70010 | 10942 ft | 320 kts | 337° |
| 2026-05-08 19:12 | 49.23420 | 2.68790 | 11284 ft | 333 kts | 337° |
| 2026-05-08 19:13 | 49.25631 | 2.67496 | 11630 ft | 346 kts | 337° |
| 2026-05-08 19:13 | 49.27924 | 2.66138 | 12012 ft | 356 kts | 337° |
| 2026-05-08 19:13 | 49.30231 | 2.64784 | 12599 ft | 360 kts | 338° |
| 2026-05-08 19:13 | 49.32610 | 2.63445 | 13215 ft | 364 kts | 338° |
| 2026-05-08 19:14 | 49.35003 | 2.62093 | 13861 ft | 367 kts | 338° |
| 2026-05-08 19:14 | 49.37413 | 2.60719 | 14425 ft | 371 kts | 338° |
| 2026-05-08 19:14 | 49.39846 | 2.59326 | 14996 ft | 374 kts | 338° |
| 2026-05-08 19:14 | 49.42267 | 2.57935 | 15564 ft | 377 kts | 338° |
| 2026-05-08 19:15 | 49.44745 | 2.56506 | 16156 ft | 379 kts | 338° |
| 2026-05-08 19:15 | 49.47226 | 2.55080 | 16727 ft | 382 kts | 338° |
| 2026-05-08 19:15 | 49.49704 | 2.53664 | 17279 ft | 386 kts | 338° |
| 2026-05-08 19:15 | 49.52272 | 2.52199 | 17767 ft | 391 kts | 339° |
| 2026-05-08 19:16 | 49.54808 | 2.50752 | 18345 ft | 393 kts | 339° |
| 2026-05-08 19:16 | 49.57376 | 2.49284 | 18926 ft | 393 kts | 339° |
| 2026-05-08 19:16 | 49.59938 | 2.47816 | 19561 ft | 391 kts | 339° |
| 2026-05-08 19:16 | 49.62488 | 2.46352 | 20187 ft | 390 kts | 339° |
| 2026-05-08 19:17 | 49.65016 | 2.44897 | 20656 ft | 392 kts | 339° |
| 2026-05-08 19:17 | 49.67596 | 2.43410 | 21205 ft | 393 kts | 339° |
| 2026-05-08 19:17 | 49.70132 | 2.41947 | 21733 ft | 393 kts | 339° |
| 2026-05-08 19:17 | 49.72704 | 2.40460 | 22281 ft | 394 kts | 339° |
| 2026-05-08 19:18 | 49.75300 | 2.38958 | 22747 ft | 396 kts | 339° |
| 2026-05-08 19:18 | 49.77859 | 2.37477 | 23232 ft | 397 kts | 339° |
| 2026-05-08 19:18 | 49.80470 | 2.35964 | 23726 ft | 398 kts | 339° |
| 2026-05-08 19:18 | 49.83076 | 2.34452 | 24098 ft | 400 kts | 339° |
| 2026-05-08 19:19 | 49.85669 | 2.32945 | 24439 ft | 402 kts | 339° |
| 2026-05-08 19:19 | 49.88309 | 2.31409 | 24791 ft | 404 kts | 339° |
| 2026-05-08 19:19 | 49.90964 | 2.29863 | 25148 ft | 406 kts | 339° |
| 2026-05-08 19:19 | 49.93585 | 2.28335 | 25499 ft | 408 kts | 339° |
| 2026-05-08 19:20 | 49.96260 | 2.26774 | 25801 ft | 411 kts | 338° |
| 2026-05-08 19:20 | 49.98036 | 2.25737 | 25930 ft | 414 kts | 338° |
| 2026-05-08 19:20 | 50.01670 | 2.23611 | 26368 ft | 416 kts | 338° |
| 2026-05-08 19:20 | 50.04349 | 2.22041 | 26713 ft | 417 kts | 338° |
| 2026-05-08 19:21 | 50.07089 | 2.20434 | 27052 ft | 419 kts | 338° |
| 2026-05-08 19:21 | 50.09822 | 2.18830 | 27365 ft | 420 kts | 338° |
| 2026-05-08 19:21 | 50.12543 | 2.17230 | 27676 ft | 422 kts | 338° |
| 2026-05-08 19:21 | 50.15300 | 2.15607 | 27996 ft | 423 kts | 338° |
| 2026-05-08 19:22 | 50.18068 | 2.13975 | 28318 ft | 425 kts | 338° |
| 2026-05-08 19:22 | 50.20846 | 2.12335 | 28625 ft | 426 kts | 338° |
| 2026-05-08 19:22 | 50.23597 | 2.10709 | 28911 ft | 427 kts | 338° |
| 2026-05-08 19:22 | 50.26392 | 2.09056 | 29203 ft | 429 kts | 338° |
| 2026-05-08 19:23 | 50.29200 | 2.07392 | 29498 ft | 430 kts | 338° |
| 2026-05-08 19:23 | 50.31980 | 2.05744 | 29773 ft | 432 kts | 337° |
| 2026-05-08 19:23 | 50.34785 | 2.04006 | 30027 ft | 433 kts | 334° |